sensor_id;sensor_type;location;lat;lon;timestamp;P1;durP1;ratioP1;P2;durP2;ratioP2
61127;SDS011;47013;42.664;23.242;2022-09-09T00:04:36;0.80;;;0.70;;
61127;SDS011;47013;42.664;23.242;2022-09-09T00:12:34;0.82;;;0.70;;
61127;SDS011;47013;42.664;23.242;2022-09-09T00:15:07;0.40;;;0.40;;
61127;SDS011;47013;42.664;23.242;2022-09-09T00:17:39;0.60;;;0.60;;
61127;SDS011;47013;42.664;23.242;2022-09-09T00:23:11;1.35;;;0.82;;
61127;SDS011;47013;42.664;23.242;2022-09-09T00:28:09;1.90;;;0.52;;
61127;SDS011;47013;42.664;23.242;2022-09-09T00:33:11;1.20;;;0.70;;
61127;SDS011;47013;42.664;23.242;2022-09-09T00:35:44;0.50;;;0.50;;
61127;SDS011;47013;42.664;23.242;2022-09-09T00:38:14;1.45;;;1.25;;
61127;SDS011;47013;42.664;23.242;2022-09-09T00:43:46;0.55;;;0.55;;
61127;SDS011;47013;42.664;23.242;2022-09-09T01:02:28;1.23;;;0.75;;
61127;SDS011;47013;42.664;23.242;2022-09-09T01:08:02;1.25;;;0.95;;
61127;SDS011;47013;42.664;23.242;2022-09-09T01:10:48;1.73;;;1.08;;
61127;SDS011;47013;42.664;23.242;2022-09-09T01:13:25;0.85;;;0.82;;
61127;SDS011;47013;42.664;23.242;2022-09-09T01:15:55;0.52;;;0.47;;
61127;SDS011;47013;42.664;23.242;2022-09-09T01:18:26;0.63;;;0.40;;
61127;SDS011;47013;42.664;23.242;2022-09-09T01:23:45;0.43;;;0.43;;
61127;SDS011;47013;42.664;23.242;2022-09-09T01:28:53;1.00;;;0.68;;
61127;SDS011;47013;42.664;23.242;2022-09-09T01:31:20;0.70;;;0.70;;
61127;SDS011;47013;42.664;23.242;2022-09-09T01:33:51;0.20;;;0.20;;
61127;SDS011;47013;42.664;23.242;2022-09-09T01:36:21;0.98;;;0.52;;
61127;SDS011;47013;42.664;23.242;2022-09-09T01:38:49;0.77;;;0.75;;
61127;SDS011;47013;42.664;23.242;2022-09-09T01:41:14;1.70;;;1.23;;
61127;SDS011;47013;42.664;23.242;2022-09-09T01:43:40;0.70;;;0.70;;
61127;SDS011;47013;42.664;23.242;2022-09-09T01:46:05;0.50;;;0.50;;
61127;SDS011;47013;42.664;23.242;2022-09-09T01:48:31;0.60;;;0.45;;
61127;SDS011;47013;42.664;23.242;2022-09-09T01:50:56;0.45;;;0.40;;
61127;SDS011;47013;42.664;23.242;2022-09-09T01:53:22;1.05;;;0.52;;
61127;SDS011;47013;42.664;23.242;2022-09-09T01:55:55;0.73;;;0.60;;
61127;SDS011;47013;42.664;23.242;2022-09-09T02:03:51;0.70;;;0.52;;
61127;SDS011;47013;42.664;23.242;2022-09-09T02:09:00;1.02;;;0.82;;
61127;SDS011;47013;42.664;23.242;2022-09-09T02:11:29;0.63;;;0.43;;
61127;SDS011;47013;42.664;23.242;2022-09-09T02:14:10;0.75;;;0.70;;
61127;SDS011;47013;42.664;23.242;2022-09-09T02:16:46;0.50;;;0.50;;
61127;SDS011;47013;42.664;23.242;2022-09-09T02:19:18;4.60;;;1.40;;
61127;SDS011;47013;42.664;23.242;2022-09-09T02:21:49;1.85;;;1.23;;
61127;SDS011;47013;42.664;23.242;2022-09-09T02:24:15;0.93;;;0.90;;
61127;SDS011;47013;42.664;23.242;2022-09-09T02:26:41;2.00;;;1.10;;
61127;SDS011;47013;42.664;23.242;2022-09-09T02:29:13;1.67;;;0.90;;
61127;SDS011;47013;42.664;23.242;2022-09-09T02:31:45;1.13;;;0.75;;
61127;SDS011;47013;42.664;23.242;2022-09-09T02:34:13;2.05;;;1.10;;
61127;SDS011;47013;42.664;23.242;2022-09-09T02:36:41;1.30;;;1.05;;
61127;SDS011;47013;42.664;23.242;2022-09-09T02:39:10;0.13;;;0.13;;
61127;SDS011;47013;42.664;23.242;2022-09-09T02:41:37;0.85;;;0.70;;
61127;SDS011;47013;42.664;23.242;2022-09-09T02:44:05;1.23;;;0.95;;
61127;SDS011;47013;42.664;23.242;2022-09-09T02:52:11;1.20;;;0.90;;
61127;SDS011;47013;42.664;23.242;2022-09-09T02:54:43;0.93;;;0.80;;
61127;SDS011;47013;42.664;23.242;2022-09-09T02:57:16;1.58;;;1.10;;
61127;SDS011;47013;42.664;23.242;2022-09-09T02:59:44;2.35;;;1.48;;
61127;SDS011;47013;42.664;23.242;2022-09-09T03:02:10;0.65;;;0.65;;
61127;SDS011;47013;42.664;23.242;2022-09-09T03:04:36;0.73;;;0.40;;
61127;SDS011;47013;42.664;23.242;2022-09-09T03:07:02;0.90;;;0.73;;
61127;SDS011;47013;42.664;23.242;2022-09-09T03:09:28;0.45;;;0.45;;
61127;SDS011;47013;42.664;23.242;2022-09-09T03:11:54;1.25;;;0.82;;
61127;SDS011;47013;42.664;23.242;2022-09-09T03:14:20;1.17;;;0.70;;
61127;SDS011;47013;42.664;23.242;2022-09-09T03:16:49;1.20;;;0.85;;
61127;SDS011;47013;42.664;23.242;2022-09-09T03:19:15;0.88;;;0.57;;
61127;SDS011;47013;42.664;23.242;2022-09-09T03:21:40;1.90;;;0.73;;
61127;SDS011;47013;42.664;23.242;2022-09-09T03:24:06;1.48;;;1.05;;
61127;SDS011;47013;42.664;23.242;2022-09-09T03:26:32;0.68;;;0.68;;
61127;SDS011;47013;42.664;23.242;2022-09-09T03:28:57;0.88;;;0.73;;
61127;SDS011;47013;42.664;23.242;2022-09-09T03:31:25;0.93;;;0.73;;
61127;SDS011;47013;42.664;23.242;2022-09-09T03:33:51;2.08;;;0.95;;
61127;SDS011;47013;42.664;23.242;2022-09-09T03:36:16;0.75;;;0.65;;
61127;SDS011;47013;42.664;23.242;2022-09-09T03:38:42;0.73;;;0.45;;
61127;SDS011;47013;42.664;23.242;2022-09-09T03:41:07;1.70;;;1.05;;
61127;SDS011;47013;42.664;23.242;2022-09-09T03:43:33;1.40;;;0.68;;
61127;SDS011;47013;42.664;23.242;2022-09-09T03:45:58;1.35;;;0.65;;
61127;SDS011;47013;42.664;23.242;2022-09-09T03:48:24;0.80;;;0.80;;
61127;SDS011;47013;42.664;23.242;2022-09-09T03:50:52;0.50;;;0.50;;
61127;SDS011;47013;42.664;23.242;2022-09-09T03:53:19;1.95;;;1.65;;
61127;SDS011;47013;42.664;23.242;2022-09-09T03:55:47;0.65;;;0.63;;
61127;SDS011;47013;42.664;23.242;2022-09-09T03:58:14;0.38;;;0.38;;
61127;SDS011;47013;42.664;23.242;2022-09-09T04:00:40;1.23;;;0.77;;
61127;SDS011;47013;42.664;23.242;2022-09-09T04:03:09;1.27;;;0.82;;
61127;SDS011;47013;42.664;23.242;2022-09-09T04:05:36;0.80;;;0.68;;
61127;SDS011;47013;42.664;23.242;2022-09-09T04:08:04;0.10;;;0.10;;
61127;SDS011;47013;42.664;23.242;2022-09-09T04:10:31;0.90;;;0.85;;
61127;SDS011;47013;42.664;23.242;2022-09-09T04:12:56;2.05;;;1.23;;
61127;SDS011;47013;42.664;23.242;2022-09-09T04:15:22;1.23;;;1.08;;
61127;SDS011;47013;42.664;23.242;2022-09-09T04:17:47;0.73;;;0.50;;
61127;SDS011;47013;42.664;23.242;2022-09-09T04:20:18;1.08;;;0.85;;
61127;SDS011;47013;42.664;23.242;2022-09-09T04:22:44;1.17;;;0.85;;
61127;SDS011;47013;42.664;23.242;2022-09-09T04:25:09;0.50;;;0.50;;
61127;SDS011;47013;42.664;23.242;2022-09-09T04:27:38;0.68;;;0.68;;
61127;SDS011;47013;42.664;23.242;2022-09-09T04:30:06;0.98;;;0.82;;
61127;SDS011;47013;42.664;23.242;2022-09-09T04:32:33;0.75;;;0.75;;
61127;SDS011;47013;42.664;23.242;2022-09-09T04:34:59;1.85;;;0.85;;
61127;SDS011;47013;42.664;23.242;2022-09-09T04:37:24;1.77;;;1.30;;
61127;SDS011;47013;42.664;23.242;2022-09-09T04:39:50;1.42;;;1.10;;
61127;SDS011;47013;42.664;23.242;2022-09-09T04:42:15;0.80;;;0.70;;
61127;SDS011;47013;42.664;23.242;2022-09-09T04:44:42;1.77;;;1.13;;
61127;SDS011;47013;42.664;23.242;2022-09-09T04:47:09;0.80;;;0.75;;
61127;SDS011;47013;42.664;23.242;2022-09-09T04:49:35;0.68;;;0.68;;
61127;SDS011;47013;42.664;23.242;2022-09-09T04:52:02;1.45;;;1.00;;
61127;SDS011;47013;42.664;23.242;2022-09-09T04:54:28;1.08;;;0.82;;
61127;SDS011;47013;42.664;23.242;2022-09-09T04:56:53;0.93;;;0.80;;
61127;SDS011;47013;42.664;23.242;2022-09-09T04:59:19;1.67;;;0.80;;
61127;SDS011;47013;42.664;23.242;2022-09-09T05:01:45;1.20;;;0.73;;
61127;SDS011;47013;42.664;23.242;2022-09-09T05:04:11;1.05;;;0.95;;
61127;SDS011;47013;42.664;23.242;2022-09-09T05:06:36;1.08;;;0.70;;
61127;SDS011;47013;42.664;23.242;2022-09-09T05:09:02;2.17;;;1.23;;
61127;SDS011;47013;42.664;23.242;2022-09-09T05:11:28;2.78;;;1.85;;
61127;SDS011;47013;42.664;23.242;2022-09-09T05:13:57;1.55;;;1.20;;
61127;SDS011;47013;42.664;23.242;2022-09-09T05:16:22;1.83;;;1.00;;
61127;SDS011;47013;42.664;23.242;2022-09-09T05:18:48;5.25;;;1.40;;
61127;SDS011;47013;42.664;23.242;2022-09-09T05:21:15;1.80;;;0.90;;
61127;SDS011;47013;42.664;23.242;2022-09-09T05:23:41;0.50;;;0.50;;
61127;SDS011;47013;42.664;23.242;2022-09-09T05:26:09;2.63;;;1.40;;
61127;SDS011;47013;42.664;23.242;2022-09-09T05:28:37;0.65;;;0.65;;
61127;SDS011;47013;42.664;23.242;2022-09-09T05:31:03;2.05;;;1.00;;
61127;SDS011;47013;42.664;23.242;2022-09-09T05:33:33;2.85;;;1.30;;
61127;SDS011;47013;42.664;23.242;2022-09-09T05:36:07;1.02;;;0.90;;
61127;SDS011;47013;42.664;23.242;2022-09-09T05:38:35;1.58;;;1.10;;
61127;SDS011;47013;42.664;23.242;2022-09-09T05:41:02;1.65;;;1.23;;
61127;SDS011;47013;42.664;23.242;2022-09-09T05:43:28;0.80;;;0.80;;
61127;SDS011;47013;42.664;23.242;2022-09-09T05:46:01;1.95;;;1.08;;
61127;SDS011;47013;42.664;23.242;2022-09-09T05:48:40;1.63;;;1.27;;
61127;SDS011;47013;42.664;23.242;2022-09-09T05:51:07;3.15;;;1.10;;
61127;SDS011;47013;42.664;23.242;2022-09-09T05:53:35;2.33;;;1.52;;
61127;SDS011;47013;42.664;23.242;2022-09-09T05:56:05;1.38;;;1.10;;
61127;SDS011;47013;42.664;23.242;2022-09-09T05:58:32;1.33;;;0.90;;
61127;SDS011;47013;42.664;23.242;2022-09-09T06:01:05;0.80;;;0.80;;
61127;SDS011;47013;42.664;23.242;2022-09-09T06:03:36;2.67;;;1.58;;
61127;SDS011;47013;42.664;23.242;2022-09-09T06:06:04;2.22;;;1.23;;
61127;SDS011;47013;42.664;23.242;2022-09-09T06:08:34;2.95;;;1.63;;
61127;SDS011;47013;42.664;23.242;2022-09-09T06:11:04;1.67;;;1.13;;
61127;SDS011;47013;42.664;23.242;2022-09-09T06:13:31;2.37;;;1.40;;
61127;SDS011;47013;42.664;23.242;2022-09-09T06:15:57;1.48;;;0.98;;
61127;SDS011;47013;42.664;23.242;2022-09-09T06:18:23;1.23;;;1.13;;
61127;SDS011;47013;42.664;23.242;2022-09-09T06:20:53;1.42;;;1.20;;
61127;SDS011;47013;42.664;23.242;2022-09-09T06:23:29;1.70;;;1.15;;
61127;SDS011;47013;42.664;23.242;2022-09-09T06:28:31;1.85;;;1.08;;
61127;SDS011;47013;42.664;23.242;2022-09-09T06:30:58;2.70;;;1.60;;
61127;SDS011;47013;42.664;23.242;2022-09-09T06:33:30;1.88;;;1.33;;
61127;SDS011;47013;42.664;23.242;2022-09-09T06:35:57;3.72;;;2.10;;
61127;SDS011;47013;42.664;23.242;2022-09-09T06:38:23;2.15;;;1.60;;
61127;SDS011;47013;42.664;23.242;2022-09-09T06:40:55;3.25;;;2.03;;
61127;SDS011;47013;42.664;23.242;2022-09-09T06:43:21;2.65;;;1.50;;
61127;SDS011;47013;42.664;23.242;2022-09-09T06:45:54;2.28;;;1.40;;
61127;SDS011;47013;42.664;23.242;2022-09-09T06:48:20;2.50;;;1.60;;
61127;SDS011;47013;42.664;23.242;2022-09-09T06:50:46;2.30;;;1.42;;
61127;SDS011;47013;42.664;23.242;2022-09-09T06:53:11;1.95;;;1.42;;
61127;SDS011;47013;42.664;23.242;2022-09-09T06:55:37;2.08;;;1.50;;
61127;SDS011;47013;42.664;23.242;2022-09-09T06:58:02;2.50;;;1.63;;
61127;SDS011;47013;42.664;23.242;2022-09-09T07:00:32;2.83;;;1.55;;
61127;SDS011;47013;42.664;23.242;2022-09-09T07:02:57;1.35;;;0.90;;
61127;SDS011;47013;42.664;23.242;2022-09-09T07:05:23;2.10;;;1.20;;
61127;SDS011;47013;42.664;23.242;2022-09-09T07:07:48;1.30;;;1.20;;
61127;SDS011;47013;42.664;23.242;2022-09-09T07:10:15;11.00;;;1.98;;
61127;SDS011;47013;42.664;23.242;2022-09-09T07:12:40;2.58;;;1.50;;
61127;SDS011;47013;42.664;23.242;2022-09-09T07:15:06;2.47;;;1.45;;
61127;SDS011;47013;42.664;23.242;2022-09-09T07:17:31;1.55;;;1.25;;
61127;SDS011;47013;42.664;23.242;2022-09-09T07:19:57;3.75;;;2.05;;
61127;SDS011;47013;42.664;23.242;2022-09-09T07:22:22;2.85;;;1.50;;
61127;SDS011;47013;42.664;23.242;2022-09-09T07:24:48;2.40;;;1.33;;
61127;SDS011;47013;42.664;23.242;2022-09-09T07:27:14;2.05;;;1.30;;
61127;SDS011;47013;42.664;23.242;2022-09-09T07:29:40;2.22;;;1.55;;
61127;SDS011;47013;42.664;23.242;2022-09-09T07:32:05;2.97;;;1.80;;
61127;SDS011;47013;42.664;23.242;2022-09-09T07:34:30;3.13;;;1.55;;
61127;SDS011;47013;42.664;23.242;2022-09-09T07:36:56;1.20;;;1.10;;
61127;SDS011;47013;42.664;23.242;2022-09-09T07:39:22;2.35;;;1.65;;
61127;SDS011;47013;42.664;23.242;2022-09-09T07:41:48;2.75;;;1.50;;
61127;SDS011;47013;42.664;23.242;2022-09-09T07:44:18;1.55;;;1.17;;
61127;SDS011;47013;42.664;23.242;2022-09-09T07:46:46;2.60;;;1.65;;
61127;SDS011;47013;42.664;23.242;2022-09-09T07:49:12;2.80;;;1.33;;
61127;SDS011;47013;42.664;23.242;2022-09-09T07:51:39;2.13;;;1.33;;
61127;SDS011;47013;42.664;23.242;2022-09-09T07:54:10;3.05;;;1.65;;
61127;SDS011;47013;42.664;23.242;2022-09-09T07:56:38;3.92;;;1.95;;
61127;SDS011;47013;42.664;23.242;2022-09-09T07:59:04;2.25;;;1.45;;
61127;SDS011;47013;42.664;23.242;2022-09-09T08:04:02;3.63;;;1.77;;
61127;SDS011;47013;42.664;23.242;2022-09-09T08:06:30;2.83;;;1.65;;
61127;SDS011;47013;42.664;23.242;2022-09-09T08:08:58;3.38;;;1.75;;
61127;SDS011;47013;42.664;23.242;2022-09-09T08:11:24;2.75;;;1.45;;
61127;SDS011;47013;42.664;23.242;2022-09-09T08:13:52;3.38;;;1.92;;
61127;SDS011;47013;42.664;23.242;2022-09-09T08:16:22;4.15;;;1.77;;
61127;SDS011;47013;42.664;23.242;2022-09-09T08:18:49;2.92;;;1.83;;
61127;SDS011;47013;42.664;23.242;2022-09-09T08:21:20;3.33;;;1.88;;
61127;SDS011;47013;42.664;23.242;2022-09-09T08:23:49;3.55;;;1.77;;
61127;SDS011;47013;42.664;23.242;2022-09-09T08:26:18;3.33;;;1.80;;
61127;SDS011;47013;42.664;23.242;2022-09-09T08:28:52;2.67;;;1.50;;
61127;SDS011;47013;42.664;23.242;2022-09-09T08:31:20;4.25;;;1.98;;
61127;SDS011;47013;42.664;23.242;2022-09-09T08:33:47;2.28;;;1.42;;
61127;SDS011;47013;42.664;23.242;2022-09-09T08:36:14;4.20;;;2.10;;
61127;SDS011;47013;42.664;23.242;2022-09-09T08:38:54;2.30;;;1.77;;
61127;SDS011;47013;42.664;23.242;2022-09-09T08:41:41;2.13;;;1.50;;
61127;SDS011;47013;42.664;23.242;2022-09-09T08:47:05;3.05;;;1.70;;
61127;SDS011;47013;42.664;23.242;2022-09-09T08:52:41;2.97;;;1.70;;
61127;SDS011;47013;42.664;23.242;2022-09-09T08:58:16;3.20;;;1.83;;
61127;SDS011;47013;42.664;23.242;2022-09-09T09:11:57;4.25;;;2.42;;
61127;SDS011;47013;42.664;23.242;2022-09-09T09:14:26;2.00;;;1.50;;
61127;SDS011;47013;42.664;23.242;2022-09-09T09:16:59;5.45;;;2.00;;
61127;SDS011;47013;42.664;23.242;2022-09-09T09:19:26;3.83;;;1.67;;
61127;SDS011;47013;42.664;23.242;2022-09-09T09:30:29;2.75;;;1.58;;
61127;SDS011;47013;42.664;23.242;2022-09-09T09:36:14;6.07;;;1.83;;
61127;SDS011;47013;42.664;23.242;2022-09-09T09:38:51;2.13;;;1.48;;
61127;SDS011;47013;42.664;23.242;2022-09-09T09:44:01;2.65;;;1.50;;
61127;SDS011;47013;42.664;23.242;2022-09-09T09:46:28;2.90;;;1.60;;
61127;SDS011;47013;42.664;23.242;2022-09-09T09:49:11;1.95;;;1.33;;
61127;SDS011;47013;42.664;23.242;2022-09-09T09:51:38;4.25;;;1.83;;
61127;SDS011;47013;42.664;23.242;2022-09-09T09:56:43;6.82;;;2.15;;
61127;SDS011;47013;42.664;23.242;2022-09-09T09:59:19;1.52;;;1.17;;
61127;SDS011;47013;42.664;23.242;2022-09-09T10:01:46;2.77;;;1.70;;
61127;SDS011;47013;42.664;23.242;2022-09-09T10:04:22;2.22;;;1.45;;
61127;SDS011;47013;42.664;23.242;2022-09-09T10:06:51;2.13;;;1.30;;
61127;SDS011;47013;42.664;23.242;2022-09-09T10:09:24;4.75;;;1.90;;
61127;SDS011;47013;42.664;23.242;2022-09-09T10:12:05;2.50;;;1.55;;
61127;SDS011;47013;42.664;23.242;2022-09-09T10:22:50;2.35;;;1.42;;
61127;SDS011;47013;42.664;23.242;2022-09-09T10:27:56;1.85;;;1.00;;
61127;SDS011;47013;42.664;23.242;2022-09-09T10:36:31;2.08;;;1.17;;
61127;SDS011;47013;42.664;23.242;2022-09-09T10:39:04;3.38;;;1.60;;
61127;SDS011;47013;42.664;23.242;2022-09-09T10:41:44;3.15;;;1.73;;
61127;SDS011;47013;42.664;23.242;2022-09-09T10:55:18;2.25;;;1.58;;
61127;SDS011;47013;42.664;23.242;2022-09-09T10:57:49;1.92;;;1.35;;
61127;SDS011;47013;42.664;23.242;2022-09-09T11:03:09;3.03;;;1.65;;
61127;SDS011;47013;42.664;23.242;2022-09-09T11:05:39;4.43;;;1.95;;
61127;SDS011;47013;42.664;23.242;2022-09-09T11:08:14;3.63;;;1.58;;
61127;SDS011;47013;42.664;23.242;2022-09-09T11:16:22;2.60;;;1.60;;
61127;SDS011;47013;42.664;23.242;2022-09-09T11:19:16;0.93;;;0.70;;
61127;SDS011;47013;42.664;23.242;2022-09-09T11:21:47;2.25;;;1.42;;
61127;SDS011;47013;42.664;23.242;2022-09-09T11:26:52;1.85;;;1.15;;
61127;SDS011;47013;42.664;23.242;2022-09-09T11:35:18;1.02;;;0.85;;
61127;SDS011;47013;42.664;23.242;2022-09-09T11:40:43;1.52;;;1.38;;
61127;SDS011;47013;42.664;23.242;2022-09-09T11:43:10;1.75;;;1.27;;
61127;SDS011;47013;42.664;23.242;2022-09-09T11:45:39;2.33;;;1.35;;
61127;SDS011;47013;42.664;23.242;2022-09-09T11:48:21;3.05;;;1.55;;
61127;SDS011;47013;42.664;23.242;2022-09-09T11:50:57;2.67;;;1.33;;
61127;SDS011;47013;42.664;23.242;2022-09-09T11:53:25;1.85;;;1.20;;
61127;SDS011;47013;42.664;23.242;2022-09-09T11:56:01;2.67;;;1.60;;
61127;SDS011;47013;42.664;23.242;2022-09-09T11:58:27;1.92;;;1.40;;
61127;SDS011;47013;42.664;23.242;2022-09-09T12:00:57;2.13;;;1.40;;
61127;SDS011;47013;42.664;23.242;2022-09-09T12:06:25;1.70;;;1.20;;
61127;SDS011;47013;42.664;23.242;2022-09-09T12:08:58;2.55;;;1.40;;
61127;SDS011;47013;42.664;23.242;2022-09-09T12:11:34;2.47;;;1.40;;
61127;SDS011;47013;42.664;23.242;2022-09-09T12:13:59;1.42;;;1.00;;
61127;SDS011;47013;42.664;23.242;2022-09-09T12:19:13;1.77;;;1.13;;
61127;SDS011;47013;42.664;23.242;2022-09-09T12:22:04;1.08;;;0.88;;
61127;SDS011;47013;42.664;23.242;2022-09-09T12:24:36;1.08;;;0.70;;
61127;SDS011;47013;42.664;23.242;2022-09-09T12:27:20;2.50;;;1.40;;
61127;SDS011;47013;42.664;23.242;2022-09-09T12:30:09;0.98;;;0.88;;
61127;SDS011;47013;42.664;23.242;2022-09-09T12:32:37;2.15;;;1.30;;
61127;SDS011;47013;42.664;23.242;2022-09-09T12:35:04;1.85;;;1.13;;
61127;SDS011;47013;42.664;23.242;2022-09-09T12:40:24;1.10;;;1.00;;
61127;SDS011;47013;42.664;23.242;2022-09-09T12:42:50;1.00;;;0.63;;
61127;SDS011;47013;42.664;23.242;2022-09-09T12:45:23;0.98;;;0.82;;
61127;SDS011;47013;42.664;23.242;2022-09-09T12:47:52;1.80;;;0.95;;
61127;SDS011;47013;42.664;23.242;2022-09-09T12:50:26;1.95;;;1.60;;
61127;SDS011;47013;42.664;23.242;2022-09-09T12:52:55;6.40;;;1.65;;
61127;SDS011;47013;42.664;23.242;2022-09-09T12:55:24;1.08;;;0.60;;
61127;SDS011;47013;42.664;23.242;2022-09-09T12:57:55;1.50;;;0.80;;
61127;SDS011;47013;42.664;23.242;2022-09-09T13:00:23;0.80;;;0.63;;
61127;SDS011;47013;42.664;23.242;2022-09-09T13:02:57;1.50;;;1.00;;
61127;SDS011;47013;42.664;23.242;2022-09-09T13:05:34;0.60;;;0.50;;
61127;SDS011;47013;42.664;23.242;2022-09-09T13:08:01;0.95;;;0.77;;
61127;SDS011;47013;42.664;23.242;2022-09-09T13:10:29;1.65;;;1.23;;
61127;SDS011;47013;42.664;23.242;2022-09-09T13:12:58;2.25;;;1.15;;
61127;SDS011;47013;42.664;23.242;2022-09-09T13:15:26;2.22;;;1.10;;
61127;SDS011;47013;42.664;23.242;2022-09-09T13:17:57;1.10;;;0.88;;
61127;SDS011;47013;42.664;23.242;2022-09-09T13:20:25;1.27;;;0.95;;
61127;SDS011;47013;42.664;23.242;2022-09-09T13:22:52;2.28;;;1.40;;
61127;SDS011;47013;42.664;23.242;2022-09-09T13:27:59;1.30;;;0.82;;
61127;SDS011;47013;42.664;23.242;2022-09-09T13:35:31;3.63;;;2.10;;
61127;SDS011;47013;42.664;23.242;2022-09-09T13:37:58;3.53;;;1.63;;
61127;SDS011;47013;42.664;23.242;2022-09-09T13:40:25;3.20;;;1.55;;
61127;SDS011;47013;42.664;23.242;2022-09-09T13:42:52;2.38;;;1.38;;
61127;SDS011;47013;42.664;23.242;2022-09-09T13:45:24;1.70;;;1.20;;
61127;SDS011;47013;42.664;23.242;2022-09-09T13:47:54;2.42;;;1.35;;
61127;SDS011;47013;42.664;23.242;2022-09-09T13:52:54;2.95;;;1.55;;
61127;SDS011;47013;42.664;23.242;2022-09-09T13:55:23;2.55;;;1.63;;
61127;SDS011;47013;42.664;23.242;2022-09-09T13:57:53;2.58;;;1.60;;
61127;SDS011;47013;42.664;23.242;2022-09-09T14:00:21;3.25;;;1.58;;
61127;SDS011;47013;42.664;23.242;2022-09-09T14:02:47;3.55;;;1.55;;
61127;SDS011;47013;42.664;23.242;2022-09-09T14:05:13;1.45;;;1.17;;
61127;SDS011;47013;42.664;23.242;2022-09-09T14:07:41;1.30;;;0.93;;
61127;SDS011;47013;42.664;23.242;2022-09-09T14:10:07;1.85;;;0.95;;
61127;SDS011;47013;42.664;23.242;2022-09-09T14:12:33;1.98;;;1.08;;
61127;SDS011;47013;42.664;23.242;2022-09-09T14:14:58;1.10;;;0.93;;
61127;SDS011;47013;42.664;23.242;2022-09-09T14:17:27;1.15;;;1.05;;
61127;SDS011;47013;42.664;23.242;2022-09-09T14:22:21;1.75;;;1.10;;
61127;SDS011;47013;42.664;23.242;2022-09-09T14:24:47;2.13;;;1.38;;
61127;SDS011;47013;42.664;23.242;2022-09-09T14:27:12;2.15;;;1.40;;
61127;SDS011;47013;42.664;23.242;2022-09-09T14:29:37;1.70;;;1.20;;
61127;SDS011;47013;42.664;23.242;2022-09-09T14:32:03;1.70;;;1.25;;
61127;SDS011;47013;42.664;23.242;2022-09-09T14:34:28;2.90;;;1.40;;
61127;SDS011;47013;42.664;23.242;2022-09-09T14:36:54;3.08;;;2.00;;
61127;SDS011;47013;42.664;23.242;2022-09-09T14:39:19;2.30;;;1.40;;
61127;SDS011;47013;42.664;23.242;2022-09-09T14:41:45;1.83;;;1.13;;
61127;SDS011;47013;42.664;23.242;2022-09-09T14:44:10;1.67;;;1.23;;
61127;SDS011;47013;42.664;23.242;2022-09-09T14:46:36;2.40;;;1.58;;
61127;SDS011;47013;42.664;23.242;2022-09-09T14:49:01;1.33;;;1.23;;
61127;SDS011;47013;42.664;23.242;2022-09-09T14:51:27;2.80;;;1.40;;
61127;SDS011;47013;42.664;23.242;2022-09-09T14:53:54;3.15;;;1.83;;
61127;SDS011;47013;42.664;23.242;2022-09-09T14:56:23;2.65;;;1.38;;
61127;SDS011;47013;42.664;23.242;2022-09-09T14:58:54;8.57;;;1.50;;
61127;SDS011;47013;42.664;23.242;2022-09-09T15:01:21;1.58;;;1.35;;
61127;SDS011;47013;42.664;23.242;2022-09-09T15:03:51;1.88;;;1.50;;
61127;SDS011;47013;42.664;23.242;2022-09-09T15:06:18;1.65;;;1.27;;
61127;SDS011;47013;42.664;23.242;2022-09-09T15:08:45;3.22;;;1.33;;
61127;SDS011;47013;42.664;23.242;2022-09-09T15:11:12;2.13;;;1.30;;
61127;SDS011;47013;42.664;23.242;2022-09-09T15:13:39;1.00;;;0.73;;
61127;SDS011;47013;42.664;23.242;2022-09-09T15:16:10;0.98;;;0.90;;
61127;SDS011;47013;42.664;23.242;2022-09-09T15:18:37;0.88;;;0.88;;
61127;SDS011;47013;42.664;23.242;2022-09-09T15:21:14;2.63;;;0.93;;
61127;SDS011;47013;42.664;23.242;2022-09-09T15:23:41;1.80;;;1.17;;
61127;SDS011;47013;42.664;23.242;2022-09-09T15:26:07;2.15;;;0.93;;
61127;SDS011;47013;42.664;23.242;2022-09-09T15:28:33;0.75;;;0.55;;
61127;SDS011;47013;42.664;23.242;2022-09-09T15:31:05;1.45;;;0.95;;
61127;SDS011;47013;42.664;23.242;2022-09-09T15:33:46;1.00;;;0.70;;
61127;SDS011;47013;42.664;23.242;2022-09-09T15:36:20;1.30;;;1.02;;
61127;SDS011;47013;42.664;23.242;2022-09-09T15:38:49;1.45;;;0.77;;
61127;SDS011;47013;42.664;23.242;2022-09-09T15:41:16;1.58;;;0.90;;
61127;SDS011;47013;42.664;23.242;2022-09-09T15:43:43;2.08;;;1.25;;
61127;SDS011;47013;42.664;23.242;2022-09-09T15:48:42;1.52;;;0.93;;
61127;SDS011;47013;42.664;23.242;2022-09-09T15:51:13;1.80;;;1.20;;
61127;SDS011;47013;42.664;23.242;2022-09-09T15:53:39;1.52;;;0.95;;
61127;SDS011;47013;42.664;23.242;2022-09-09T15:56:05;1.23;;;0.75;;
61127;SDS011;47013;42.664;23.242;2022-09-09T15:58:34;0.82;;;0.82;;
61127;SDS011;47013;42.664;23.242;2022-09-09T16:01:01;2.05;;;1.50;;
61127;SDS011;47013;42.664;23.242;2022-09-09T16:03:34;3.22;;;1.25;;
61127;SDS011;47013;42.664;23.242;2022-09-09T16:06:01;2.58;;;1.45;;
61127;SDS011;47013;42.664;23.242;2022-09-09T16:08:37;2.10;;;1.55;;
61127;SDS011;47013;42.664;23.242;2022-09-09T16:11:07;3.13;;;1.50;;
61127;SDS011;47013;42.664;23.242;2022-09-09T16:13:36;2.13;;;1.30;;
61127;SDS011;47013;42.664;23.242;2022-09-09T16:16:05;2.35;;;1.30;;
61127;SDS011;47013;42.664;23.242;2022-09-09T16:18:33;2.38;;;1.55;;
61127;SDS011;47013;42.664;23.242;2022-09-09T16:21:03;3.75;;;1.70;;
61127;SDS011;47013;42.664;23.242;2022-09-09T16:23:30;1.57;;;1.37;;
61127;SDS011;47013;42.664;23.242;2022-09-09T16:25:57;1.57;;;1.13;;
61127;SDS011;47013;42.664;23.242;2022-09-09T16:28:22;2.20;;;1.67;;
61127;SDS011;47013;42.664;23.242;2022-09-09T16:30:48;6.68;;;1.83;;
61127;SDS011;47013;42.664;23.242;2022-09-09T16:33:14;1.88;;;1.35;;
61127;SDS011;47013;42.664;23.242;2022-09-09T16:35:40;1.95;;;1.15;;
61127;SDS011;47013;42.664;23.242;2022-09-09T16:38:06;2.67;;;1.42;;
61127;SDS011;47013;42.664;23.242;2022-09-09T16:40:33;1.80;;;1.25;;
61127;SDS011;47013;42.664;23.242;2022-09-09T16:43:03;1.00;;;0.90;;
61127;SDS011;47013;42.664;23.242;2022-09-09T16:45:29;2.30;;;1.65;;
61127;SDS011;47013;42.664;23.242;2022-09-09T16:47:55;2.53;;;1.33;;
61127;SDS011;47013;42.664;23.242;2022-09-09T16:50:20;2.50;;;1.38;;
61127;SDS011;47013;42.664;23.242;2022-09-09T16:52:46;2.55;;;1.25;;
61127;SDS011;47013;42.664;23.242;2022-09-09T16:55:11;1.63;;;1.10;;
61127;SDS011;47013;42.664;23.242;2022-09-09T16:57:36;3.03;;;1.35;;
61127;SDS011;47013;42.664;23.242;2022-09-09T17:00:05;2.92;;;1.60;;
61127;SDS011;47013;42.664;23.242;2022-09-09T17:02:32;2.08;;;1.40;;
61127;SDS011;47013;42.664;23.242;2022-09-09T17:04:57;2.72;;;1.55;;
61127;SDS011;47013;42.664;23.242;2022-09-09T17:07:24;2.40;;;1.30;;
61127;SDS011;47013;42.664;23.242;2022-09-09T17:09:50;2.03;;;1.45;;
61127;SDS011;47013;42.664;23.242;2022-09-09T17:12:15;1.33;;;0.85;;
61127;SDS011;47013;42.664;23.242;2022-09-09T17:14:41;1.67;;;1.15;;
61127;SDS011;47013;42.664;23.242;2022-09-09T17:17:06;1.92;;;1.23;;
61127;SDS011;47013;42.664;23.242;2022-09-09T17:19:32;1.77;;;1.48;;
61127;SDS011;47013;42.664;23.242;2022-09-09T17:21:58;2.30;;;1.27;;
61127;SDS011;47013;42.664;23.242;2022-09-09T17:24:24;2.03;;;1.25;;
61127;SDS011;47013;42.664;23.242;2022-09-09T17:26:51;1.25;;;1.15;;
61127;SDS011;47013;42.664;23.242;2022-09-09T17:29:17;2.70;;;1.40;;
61127;SDS011;47013;42.664;23.242;2022-09-09T17:31:42;1.15;;;0.98;;
61127;SDS011;47013;42.664;23.242;2022-09-09T17:34:08;2.15;;;1.30;;